Time;durP1;ratioP1;P1;durP2;ratioP2;P2;SDS_P1;SDS_P2;PMS_P1;PMS_P2;Temp;Humidity;BMP_temperature;BMP_pressure;BME280_temperature;BME280_humidity;BME280_pressure;Samples;Min_cycle;Max_cycle;Signal;HPM_P1;HPM_P2
2022/09/16 00:01:26;;;;;;;7.97;1.58;;;16.20;99.90;;;-147.18;100.00;67318.16;5014380;28;20048;-79
2022/09/16 00:04:53;;;;;;;7.65;1.45;;;16.20;99.90;;;-147.18;100.00;67318.16;5019720;28;20034;-80
2022/09/16 00:08:20;;;;;;;10.35;1.33;;;16.20;99.90;;;-147.18;100.00;67318.16;5009711;28;20042;-79
2022/09/16 00:11:45;;;;;;;5.22;1.35;;;16.20;99.90;;;-147.18;100.00;67318.16;5023755;28;20124;-80
2022/09/16 00:15:11;;;;;;;5.25;1.88;;;16.10;99.90;;;-147.18;100.00;67318.16;5028920;28;20053;-80
2022/09/16 00:18:38;;;;;;;6.07;1.42;;;16.20;99.90;;;-147.18;100.00;67318.16;5011270;28;20041;-79
2022/09/16 00:22:07;;;;;;;6.70;1.50;;;16.10;99.90;;;-147.18;100.00;67318.16;5014704;28;20057;-79
2022/09/16 00:25:32;;;;;;;7.88;1.65;;;16.20;99.90;;;-147.18;100.00;67318.16;5011406;28;20041;-79
2022/09/16 00:28:58;;;;;;;6.88;1.60;;;16.10;99.90;;;-147.18;100.00;67318.16;5029165;28;20049;-79
2022/09/16 00:32:23;;;;;;;5.97;1.35;;;16.10;99.90;;;-147.18;100.00;67318.16;5029240;28;20052;-79
2022/09/16 00:35:50;;;;;;;7.97;1.60;;;16.10;99.90;;;-147.18;100.00;67318.16;5028137;28;20044;-79
2022/09/16 00:39:16;;;;;;;6.15;1.73;;;16.10;99.90;;;-147.18;100.00;67318.16;5039053;23;20045;-81
2022/09/16 00:42:42;;;;;;;8.02;1.70;;;16.10;99.90;;;-147.18;100.00;67318.16;5004095;28;20041;-80
2022/09/16 00:46:15;;;;;;;10.10;2.00;;;16.10;99.90;;;-147.18;100.00;67318.16;4991820;28;20039;-80
2022/09/16 00:49:41;;;;;;;9.52;1.98;;;16.10;99.90;;;-147.18;100.00;67318.16;5005335;28;20065;-80
2022/09/16 00:53:12;;;;;;;6.38;1.30;;;16.10;99.90;;;-147.18;100.00;67318.16;5008872;28;20049;-80
2022/09/16 00:56:40;;;;;;;8.65;1.40;;;16.10;99.90;;;-147.18;100.00;67318.16;5011349;28;20049;-80
2022/09/16 01:00:12;;;;;;;6.30;1.50;;;16.00;99.90;;;-147.18;100.00;67318.16;4975238;28;20076;-80
2022/09/16 01:03:42;;;;;;;6.72;1.83;;;16.00;99.90;;;-147.18;100.00;67318.16;4993040;28;20380;-80
2022/09/16 01:07:10;;;;;;;7.18;1.85;;;16.00;99.90;;;-147.18;100.00;67318.16;4992484;28;20042;-80
2022/09/16 01:10:37;;;;;;;6.00;1.60;;;16.00;99.90;;;-147.18;100.00;67318.16;5003202;28;20053;-80
2022/09/16 01:18:00;;;;;;;9.82;1.55;;;16.00;99.90;;;-147.18;100.00;67318.16;5009564;28;20041;-81
2022/09/16 01:22:08;;;;;;;8.52;1.35;;;16.00;99.90;;;-147.18;100.00;67318.16;4998926;28;20724;-81
2022/09/16 01:25:54;;;;;;;7.40;1.50;;;16.00;99.90;;;-147.18;100.00;67318.16;4991860;28;20046;-80
2022/09/16 01:29:59;;;;;;;7.72;1.40;;;16.00;99.90;;;-147.18;100.00;67318.16;4992088;28;20050;-80
2022/09/16 01:33:36;;;;;;;6.60;1.30;;;16.00;99.90;;;-147.18;100.00;67318.16;4987681;28;20058;-81
2022/09/16 01:37:15;;;;;;;7.97;1.23;;;16.00;99.90;;;-147.18;100.00;67318.16;5010798;28;20050;-80
2022/09/16 01:40:53;;;;;;;3.60;1.15;;;16.00;99.90;;;-147.18;100.00;67318.16;5011731;28;20061;-80
2022/09/16 01:44:25;;;;;;;6.75;1.33;;;16.00;99.90;;;-147.18;100.00;67318.16;5002536;28;20046;-83
2022/09/16 01:48:01;;;;;;;6.60;1.73;;;16.00;99.90;;;-147.18;100.00;67318.16;4996028;28;20096;-82
2022/09/16 01:51:35;;;;;;;5.55;1.40;;;16.00;99.90;;;-147.18;100.00;67318.16;5008330;28;20125;-82
2022/09/16 01:55:06;;;;;;;7.75;1.25;;;16.00;99.90;;;-147.18;100.00;67318.16;5001644;28;20054;-82
2022/09/16 01:58:38;;;;;;;6.80;1.70;;;15.90;99.90;;;-147.18;100.00;67318.16;4990170;28;20526;-82
2022/09/16 02:02:10;;;;;;;9.68;2.03;;;15.90;99.90;;;-147.18;100.00;67318.16;5005024;28;20046;-82
2022/09/16 02:05:46;;;;;;;6.63;1.55;;;15.90;99.90;;;-147.18;100.00;67318.16;5003406;28;20046;-82
2022/09/16 02:09:18;;;;;;;10.38;1.92;;;15.90;99.90;;;-147.18;100.00;67318.16;5009681;28;20057;-82
2022/09/16 02:12:48;;;;;;;6.75;1.55;;;15.90;99.90;;;-147.18;100.00;67318.16;4996844;28;20042;-82
2022/09/16 02:16:18;;;;;;;10.80;1.90;;;15.90;99.90;;;-147.18;100.00;67318.16;5001450;28;20053;-82
2022/09/16 02:19:51;;;;;;;11.25;2.45;;;15.90;99.90;;;-147.18;100.00;67318.16;4991605;28;20402;-82
2022/09/16 02:23:21;;;;;;;6.07;1.70;;;15.90;99.90;;;-147.18;100.00;67318.16;4991979;28;20046;-82
2022/09/16 02:26:52;;;;;;;6.45;1.60;;;15.90;99.90;;;-147.18;100.00;67318.16;4995325;28;20129;-82
2022/09/16 02:30:21;;;;;;;9.68;2.35;;;15.90;99.90;;;-147.18;100.00;67318.16;5010944;28;20061;-82
2022/09/16 02:33:52;;;;;;;8.43;1.85;;;15.90;99.90;;;-147.18;100.00;67318.16;4991168;28;20053;-82
2022/09/16 02:37:23;;;;;;;7.30;1.77;;;15.90;99.90;;;-147.18;100.00;67318.16;4998482;28;20041;-82
2022/09/16 02:40:55;;;;;;;7.55;1.90;;;15.90;99.90;;;-147.18;100.00;67318.16;5010665;28;20050;-82
2022/09/16 02:44:21;;;;;;;8.52;1.60;;;15.90;99.90;;;-147.18;100.00;67318.16;4991093;28;20514;-82
2022/09/16 02:47:58;;;;;;;8.57;1.92;;;16.00;99.90;;;-147.18;100.00;67318.16;5001647;28;20061;-82
2022/09/16 02:51:32;;;;;;;9.00;1.98;;;15.80;99.90;;;-147.18;100.00;67318.16;5010345;28;20058;-82
2022/09/16 02:55:04;;;;;;;6.90;1.65;;;15.90;99.90;;;-147.18;100.00;67318.16;4973298;28;20492;-82
2022/09/16 02:58:30;;;;;;;8.23;1.80;;;15.80;99.90;;;-147.18;100.00;67318.16;4991084;28;20125;-82
2022/09/16 03:01:59;;;;;;;7.38;1.63;;;15.80;99.90;;;-147.18;100.00;67318.16;4992471;28;20585;-83
2022/09/16 03:05:27;;;;;;;7.40;1.58;;;15.80;99.90;;;-147.18;100.00;67318.16;5009433;28;20048;-83
2022/09/16 03:08:56;;;;;;;6.28;1.98;;;15.80;99.90;;;-147.18;100.00;67318.16;4997245;28;20494;-82
2022/09/16 03:12:41;;;;;;;5.80;1.50;;;15.70;99.90;;;-147.18;100.00;67318.16;5003058;28;20584;-82
2022/09/16 03:16:26;;;;;;;5.20;1.67;;;15.70;99.90;;;-147.18;100.00;67318.16;5007669;28;20061;-82
2022/09/16 03:20:05;;;;;;;8.35;1.40;;;15.70;99.90;;;-147.18;100.00;67318.16;4990633;28;20073;-82
2022/09/16 03:23:49;;;;;;;6.25;1.50;;;15.70;99.90;;;-147.18;100.00;67318.16;4994936;28;20133;-82
2022/09/16 03:27:28;;;;;;;6.60;1.48;;;15.90;99.90;;;-147.18;100.00;67318.16;4987728;28;20046;-82
2022/09/16 03:31:01;;;;;;;9.30;1.70;;;15.70;99.90;;;-147.18;100.00;67318.16;4990608;28;20406;-81
2022/09/16 03:34:35;;;;;;;9.65;1.67;;;15.70;99.90;;;-147.18;100.00;67318.16;5010051;28;20056;-83
2022/09/16 03:38:07;;;;;;;6.13;1.60;;;15.70;99.90;;;-147.18;100.00;67318.16;4996276;28;20046;-83
2022/09/16 03:41:35;;;;;;;10.00;1.73;;;15.70;99.90;;;-147.18;100.00;67318.16;4991381;28;20078;-82
2022/09/16 03:45:01;;;;;;;5.97;2.00;;;15.70;99.90;;;-147.18;100.00;67318.16;4990250;28;20042;-83
2022/09/16 03:48:26;;;;;;;10.27;2.30;;;15.60;99.90;;;-147.18;100.00;67318.16;4990460;28;20043;-82
2022/09/16 03:51:52;;;;;;;7.85;2.33;;;15.60;99.90;;;-147.18;100.00;67318.16;4993429;28;20427;-83
2022/09/16 03:55:18;;;;;;;13.93;3.60;;;15.60;99.90;;;-147.18;100.00;67318.16;5009168;28;20053;-80
2022/09/16 03:58:44;;;;;;;12.85;3.08;;;15.60;99.90;;;-147.18;100.00;67318.16;4991371;28;20070;-84
2022/09/16 04:02:10;;;;;;;13.77;2.70;;;15.60;99.90;;;-147.18;100.00;67318.16;4993744;28;20034;-83
2022/09/16 04:05:36;;;;;;;13.50;2.58;;;15.60;99.90;;;-147.18;100.00;67318.16;5006059;28;20147;-84
2022/09/16 04:09:02;;;;;;;8.13;2.42;;;15.60;99.90;;;-147.18;100.00;67318.16;5009015;28;20042;-81
2022/09/16 04:12:28;;;;;;;12.30;2.50;;;15.60;99.90;;;-147.18;100.00;67318.16;4988492;28;20074;-77
2022/09/16 04:15:55;;;;;;;9.38;2.40;;;15.60;99.90;;;-147.18;100.00;67318.16;4996157;28;20053;-77
2022/09/16 04:19:20;;;;;;;11.05;2.83;;;15.60;99.90;;;-147.18;100.00;67318.16;5006456;28;20034;-77
2022/09/16 04:22:46;;;;;;;7.75;2.40;;;15.60;99.90;;;-147.18;100.00;67318.16;5004323;28;20046;-78
2022/09/16 04:26:12;;;;;;;6.22;1.90;;;15.60;99.90;;;-147.18;100.00;67318.16;5007141;28;20537;-78
2022/09/16 04:29:37;;;;;;;8.68;2.30;;;15.50;99.90;;;-147.18;100.00;67318.16;5005128;28;20391;-77
2022/09/16 04:33:04;;;;;;;7.25;1.95;;;15.50;99.90;;;-147.18;100.00;67318.16;5003703;28;20045;-77
2022/09/16 04:36:30;;;;;;;9.68;1.88;;;15.50;99.90;;;-147.18;100.00;67318.16;5011996;28;20034;-77
2022/09/16 04:39:56;;;;;;;12.20;1.80;;;15.60;99.90;;;-147.18;100.00;67318.16;4989931;28;20408;-77
2022/09/16 04:43:22;;;;;;;6.30;1.83;;;15.60;99.90;;;-147.18;100.00;67318.16;5002426;28;20123;-77
2022/09/16 04:46:50;;;;;;;6.65;1.70;;;15.60;99.90;;;-147.18;100.00;67318.16;5011982;28;20050;-79
2022/09/16 04:50:17;;;;;;;11.45;2.42;;;15.60;99.90;;;-147.18;100.00;67318.16;5000274;28;20402;-79
2022/09/16 04:53:43;;;;;;;9.20;2.28;;;15.60;99.90;;;-147.18;100.00;67318.16;4997942;28;20050;-79
2022/09/16 04:57:11;;;;;;;11.40;2.22;;;15.60;99.90;;;-147.18;100.00;67318.16;4998766;28;20038;-78
2022/09/16 05:00:36;;;;;;;9.60;2.10;;;15.60;99.90;;;-147.18;100.00;67318.16;4998867;28;20046;-78
2022/09/16 05:04:04;;;;;;;10.73;2.00;;;15.60;99.90;;;-147.18;100.00;67318.16;5011014;28;20045;-79
2022/09/16 05:07:32;;;;;;;7.70;2.03;;;15.60;99.90;;;-147.18;100.00;67318.16;5009893;28;20044;-79
2022/09/16 05:11:02;;;;;;;9.10;1.80;;;15.60;99.90;;;-147.18;100.00;67318.16;5012017;28;20038;-79
2022/09/16 05:14:27;;;;;;;7.90;1.77;;;15.60;99.90;;;-147.18;100.00;67318.16;5012254;28;20060;-79
2022/09/16 05:17:53;;;;;;;9.68;2.22;;;15.60;99.90;;;-147.18;100.00;67318.16;5012307;28;20129;-79
2022/09/16 05:21:21;;;;;;;7.30;2.13;;;15.60;99.90;;;-147.18;100.00;67318.16;5012310;28;20045;-78
2022/09/16 05:24:48;;;;;;;7.35;1.80;;;15.60;99.90;;;-147.18;100.00;67318.16;4994369;28;20046;-79
2022/09/16 05:28:14;;;;;;;6.28;1.85;;;15.60;99.90;;;-147.18;100.00;67318.16;5012133;28;20425;-78
2022/09/16 05:31:41;;;;;;;8.35;2.25;;;15.50;99.90;;;-147.18;100.00;67318.16;5012096;28;20113;-78
2022/09/16 05:35:11;;;;;;;8.65;1.95;;;15.50;99.90;;;-147.18;100.00;67318.16;5012173;28;20037;-78
2022/09/16 05:38:36;;;;;;;5.60;1.67;;;15.50;99.90;;;-147.18;100.00;67318.16;5012030;28;20038;-78
2022/09/16 05:42:04;;;;;;;9.93;2.28;;;15.50;99.90;;;-147.18;100.00;67318.16;5011714;28;20045;-78
2022/09/16 05:45:30;;;;;;;8.23;2.67;;;15.50;99.90;;;-147.18;100.00;67318.16;5010933;28;20046;-77
2022/09/16 05:48:56;;;;;;;8.93;2.55;;;15.50;99.90;;;-147.18;100.00;67318.16;5011598;28;20113;-77
2022/09/16 05:52:23;;;;;;;14.43;3.33;;;15.50;99.90;;;-147.18;100.00;67318.16;5011834;28;20049;-77
2022/09/16 05:55:55;;;;;;;9.38;3.08;;;15.50;99.90;;;-147.18;100.00;67318.16;5010898;28;20124;-77
2022/09/16 05:59:22;;;;;;;10.95;3.05;;;15.50;99.90;;;-147.18;100.00;67318.16;5011392;28;20406;-77
2022/09/16 06:02:48;;;;;;;13.80;3.30;;;15.40;99.90;;;-147.18;100.00;67318.16;5011628;28;20149;-77
2022/09/16 06:06:18;;;;;;;10.75;2.95;;;15.50;99.90;;;-147.18;100.00;67318.16;5010671;28;20054;-77
2022/09/16 06:09:44;;;;;;;10.60;2.97;;;15.60;99.90;;;-147.18;100.00;67318.16;5011457;28;20049;-77
2022/09/16 06:13:10;;;;;;;9.77;3.00;;;15.60;99.90;;;-147.18;100.00;67318.16;5011419;28;20046;-77
2022/09/16 06:16:37;;;;;;;10.30;2.63;;;15.60;99.90;;;-147.18;100.00;67318.16;5010176;28;20037;-77
2022/09/16 06:20:06;;;;;;;9.98;2.65;;;15.60;99.90;;;-147.18;100.00;67318.16;5011161;28;20502;-77
2022/09/16 06:23:32;;;;;;;10.38;2.90;;;15.60;99.90;;;-147.18;100.00;67318.16;4992778;28;20479;-77
2022/09/16 06:26:58;;;;;;;9.80;2.70;;;15.60;99.90;;;-147.18;100.00;67318.16;5010099;28;20038;-77
2022/09/16 06:30:25;;;;;;;7.57;3.00;;;15.60;99.90;;;-147.18;100.00;67318.16;5010739;28;20133;-77
2022/09/16 06:33:52;;;;;;;6.10;2.40;;;15.70;99.90;;;-147.18;100.00;67318.16;5010883;28;20442;-77
2022/09/16 06:37:19;;;;;;;15.43;2.85;;;15.70;99.90;;;-147.18;100.00;67318.16;5010118;28;20053;-77
2022/09/16 06:40:45;;;;;;;9.77;2.95;;;15.70;99.90;;;-147.18;100.00;67318.16;5049025;23;20053;-80
2022/09/16 06:44:11;;;;;;;10.50;2.80;;;15.70;99.90;;;-147.18;100.00;67318.16;5055572;28;20119;-81
2022/09/16 06:47:36;;;;;;;7.63;2.85;;;15.70;99.90;;;-147.18;100.00;67318.16;5046944;28;20121;-80
2022/09/16 06:51:06;;;;;;;6.78;2.50;;;15.70;99.90;;;-147.18;100.00;67318.16;5038110;28;20041;-80
2022/09/16 06:54:33;;;;;;;11.50;2.90;;;15.70;99.90;;;-147.18;100.00;67318.16;5040577;28;20036;-80
2022/09/16 06:57:58;;;;;;;9.45;2.70;;;15.70;99.90;;;-147.18;100.00;67318.16;5032253;28;20522;-80
2022/09/16 07:01:25;;;;;;;10.65;3.35;;;15.70;99.90;;;-147.18;100.00;67318.16;5041612;28;20045;-81
2022/09/16 07:04:51;;;;;;;12.73;3.30;;;15.70;99.90;;;-147.18;100.00;67318.16;5035091;28;20107;-81
2022/09/16 07:08:18;;;;;;;9.27;2.70;;;15.80;99.90;;;-147.18;100.00;67318.16;5040202;28;20063;-80
2022/09/16 07:11:55;;;;;;;13.18;2.88;;;15.80;99.90;;;-147.18;100.00;67318.16;5034027;28;20498;-80
2022/09/16 07:15:20;;;;;;;9.43;2.90;;;15.90;99.90;;;-147.18;100.00;67318.16;5035278;28;20532;-80
2022/09/16 07:18:47;;;;;;;10.18;3.20;;;15.90;99.90;;;-147.18;100.00;67318.16;5047265;28;20748;-80
2022/09/16 07:22:14;;;;;;;9.68;2.92;;;16.00;99.90;;;-147.18;100.00;67318.16;5033173;28;20659;-81
2022/09/16 07:25:41;;;;;;;7.88;2.88;;;16.00;99.90;;;-147.18;100.00;67318.16;5036183;28;20037;-81
2022/09/16 07:29:09;;;;;;;9.75;2.92;;;16.00;99.90;;;-147.18;100.00;67318.16;5034417;28;20037;-79
2022/09/16 07:32:37;;;;;;;13.75;2.95;;;16.00;99.90;;;-147.18;100.00;67318.16;5034648;28;20671;-79
2022/09/16 07:36:05;;;;;;;10.10;2.97;;;16.10;99.90;;;-147.18;100.00;67318.16;5045225;28;20123;-79
2022/09/16 07:39:30;;;;;;;11.60;3.42;;;16.10;99.90;;;-147.18;100.00;67318.16;5041954;28;20041;-80
2022/09/16 07:42:57;;;;;;;11.13;3.40;;;16.10;99.90;;;-147.18;100.00;67318.16;5032426;28;20121;-79
2022/09/16 07:46:24;;;;;;;10.27;3.13;;;16.20;99.90;;;-147.18;100.00;67318.16;5037991;28;20035;-80
2022/09/16 07:49:54;;;;;;;9.60;3.22;;;16.30;99.90;;;-147.18;100.00;67318.16;5037414;28;20057;-80
2022/09/16 07:53:21;;;;;;;14.90;3.38;;;16.30;99.90;;;-147.18;100.00;67318.16;5029117;28;20041;-79
2022/09/16 07:56:46;;;;;;;10.00;3.60;;;16.40;99.90;;;-147.18;100.00;67318.16;5042641;28;20037;-80
2022/09/16 08:00:15;;;;;;;8.82;2.90;;;16.50;99.90;;;-147.18;100.00;67318.16;5042666;28;20042;-80
2022/09/16 08:03:42;;;;;;;9.57;3.40;;;16.60;99.90;;;-147.18;100.00;67318.16;5040018;28;20053;-80
2022/09/16 08:07:10;;;;;;;8.30;3.47;;;16.60;99.90;;;-147.18;100.00;67318.16;5042680;28;20040;-80
2022/09/16 08:10:36;;;;;;;13.15;4.15;;;16.60;99.90;;;-147.18;100.00;67318.16;5040055;28;20048;-80
2022/09/16 08:14:02;;;;;;;11.35;4.50;;;16.70;99.90;;;-147.18;100.00;67318.16;5043833;28;20468;-79
2022/09/16 08:17:29;;;;;;;9.70;4.90;;;16.70;99.90;;;-147.18;100.00;67318.16;5033691;28;20037;-80
2022/09/16 08:20:55;;;;;;;12.20;4.78;;;16.70;99.90;;;-147.18;100.00;67318.16;5052334;28;20037;-80
2022/09/16 08:24:21;;;;;;;8.25;4.22;;;16.70;99.90;;;-147.18;100.00;67318.16;5041945;28;20041;-81
2022/09/16 08:27:47;;;;;;;10.05;3.40;;;16.70;99.90;;;-147.18;100.00;67318.16;5044556;28;20784;-81
2022/09/16 08:31:12;;;;;;;9.90;4.30;;;16.80;99.90;;;-147.18;100.00;67318.16;5037129;28;20035;-81
2022/09/16 08:34:40;;;;;;;9.30;4.05;;;16.80;99.90;;;-147.18;100.00;67318.16;5032572;28;20045;-79
2022/09/16 08:38:06;;;;;;;7.40;4.80;;;16.90;99.90;;;-147.18;100.00;67318.16;5032617;28;20497;-81
2022/09/16 08:41:49;;;;;;;12.80;6.35;;;16.90;99.90;;;-147.18;100.00;67318.16;5035824;28;20132;-80
2022/09/16 08:45:27;;;;;;;9.93;5.00;;;17.00;99.90;;;-147.18;100.00;67318.16;5018465;28;20122;-80
2022/09/16 08:49:10;;;;;;;9.65;5.05;;;17.00;99.90;;;-147.18;100.00;67318.16;5045954;28;20044;-79
2022/09/16 08:52:37;;;;;;;9.07;5.45;;;16.90;99.90;;;-147.18;100.00;67318.16;5041583;28;20045;-79
2022/09/16 08:56:12;;;;;;;12.80;5.53;;;17.00;99.90;;;-147.18;100.00;67318.16;5041261;28;20033;-78
2022/09/16 08:59:43;;;;;;;11.65;4.95;;;17.00;99.90;;;-147.18;100.00;67318.16;5039252;28;20049;-79
2022/09/16 09:03:28;;;;;;;11.70;5.25;;;17.10;99.90;;;-147.18;100.00;67318.16;5045388;28;20076;-79
2022/09/16 09:07:01;;;;;;;11.68;4.30;;;17.20;99.90;;;-147.18;100.00;67318.16;5032174;28;20050;-79
2022/09/16 09:10:48;;;;;;;9.93;3.75;;;17.20;99.90;;;-147.18;100.00;67318.16;5040166;28;20730;-79
2022/09/16 09:14:31;;;;;;;10.77;4.00;;;17.20;99.90;;;-147.18;100.00;67318.16;5039743;28;20037;-79
2022/09/16 09:18:10;;;;;;;9.15;2.90;;;17.20;99.90;;;-147.18;100.00;67318.16;5032139;28;20038;-79
2022/09/16 09:21:50;;;;;;;11.68;3.28;;;17.20;99.90;;;-147.18;100.00;67318.16;5043069;28;20055;-79
2022/09/16 09:25:31;;;;;;;8.10;3.20;;;17.20;99.90;;;-147.18;100.00;67318.16;5043582;28;20045;-79
2022/09/16 09:29:22;;;;;;;9.83;3.10;;;17.10;99.90;;;-147.18;100.00;67318.16;5039610;28;20371;-79
2022/09/16 09:33:12;;;;;;;7.37;2.53;;;17.10;99.90;;;-147.18;100.00;67318.16;5036335;28;20045;-79
2022/09/16 09:36:59;;;;;;;10.07;2.92;;;17.10;99.90;;;-147.18;100.00;67318.16;5035265;28;20121;-79
2022/09/16 09:40:40;;;;;;;9.75;2.90;;;17.00;99.90;;;-147.18;100.00;67318.16;5038525;28;20040;-79
2022/09/16 09:44:21;;;;;;;6.65;3.08;;;17.20;99.90;;;-147.18;100.00;67318.16;5040655;28;20124;-79
2022/09/16 09:47:55;;;;;;;8.07;2.63;;;17.20;99.90;;;-147.18;100.00;67318.16;5038087;28;20116;-78
2022/09/16 09:51:31;;;;;;;7.97;2.60;;;17.40;99.90;;;-147.18;100.00;67318.16;5043147;28;20038;-79
2022/09/16 09:55:13;;;;;;;9.05;2.78;;;17.40;99.90;;;-147.18;100.00;67318.16;5036458;28;20049;-79
2022/09/16 09:58:46;;;;;;;7.80;2.72;;;17.50;99.90;;;-147.18;100.00;67318.16;5034021;28;20064;-79
2022/09/16 10:02:15;;;;;;;3.88;1.70;;;17.60;99.10;;;-147.18;100.00;67318.16;5050163;28;20037;-79
2022/09/16 10:05:41;;;;;;;9.02;1.48;;;17.50;99.50;;;-147.18;100.00;67318.16;5033762;28;21366;-79
2022/09/16 10:09:16;;;;;;;7.32;1.38;;;17.50;98.30;;;-147.18;100.00;67318.16;5047626;28;20041;-79
2022/09/16 10:12:46;;;;;;;3.33;1.13;;;17.50;97.00;;;-147.18;100.00;67318.16;5035634;28;20056;-79
2022/09/16 10:16:21;;;;;;;6.32;1.35;;;17.50;98.40;;;-147.18;100.00;67318.16;5040241;28;20051;-79
2022/09/16 10:19:56;;;;;;;6.47;1.80;;;17.50;96.40;;;-147.18;100.00;67318.16;5046403;28;20041;-79
2022/09/16 10:23:25;;;;;;;5.50;1.30;;;17.50;97.60;;;-147.18;100.00;67318.16;5030781;28;20055;-79
2022/09/16 10:27:18;;;;;;;5.75;1.23;;;17.50;98.20;;;-147.18;100.00;67318.16;5029396;28;20045;-79
2022/09/16 10:30:46;;;;;;;4.03;1.15;;;17.50;99.20;;;-147.18;100.00;67318.16;5036884;28;20038;-79
2022/09/16 10:34:18;;;;;;;6.07;1.40;;;17.60;97.20;;;-147.18;100.00;67318.16;5030668;28;20044;-79
2022/09/16 10:37:48;;;;;;;4.88;1.20;;;17.60;96.50;;;-147.18;100.00;67318.16;5036358;28;20405;-79
2022/09/16 10:41:17;;;;;;;6.15;1.20;;;17.60;97.60;;;-147.18;100.00;67318.16;5039184;28;20037;-79
2022/09/16 10:44:50;;;;;;;13.43;1.20;;;17.60;95.90;;;-147.18;100.00;67318.16;5030643;28;20049;-79
2022/09/16 10:48:19;;;;;;;9.57;1.50;;;17.60;97.70;;;-147.18;100.00;67318.16;5030266;28;20065;-79
2022/09/16 10:51:54;;;;;;;6.85;1.27;;;17.60;94.80;;;-147.18;100.00;67318.16;5030347;28;20033;-79
2022/09/16 10:55:26;;;;;;;5.07;1.20;;;17.60;95.10;;;-147.18;100.00;67318.16;5029638;28;20044;-79
2022/09/16 10:59:05;;;;;;;6.30;1.75;;;17.70;95.60;;;-147.18;100.00;67318.16;5033336;28;20041;-79
2022/09/16 11:02:50;;;;;;;7.43;1.45;;;17.70;95.30;;;-147.18;100.00;67318.16;5037067;28;20033;-78
2022/09/16 11:06:29;;;;;;;8.38;1.35;;;17.60;96.10;;;-147.18;100.00;67318.16;5039950;28;20051;-79
2022/09/16 11:10:10;;;;;;;6.10;1.35;;;17.60;96.60;;;-147.18;100.00;67318.16;5030507;28;20034;-79
2022/09/16 11:14:03;;;;;;;6.65;1.45;;;17.60;96.90;;;-147.18;100.00;67318.16;5028694;28;20063;-79
2022/09/16 11:17:58;;;;;;;9.02;1.65;;;17.70;96.50;;;-147.18;100.00;67318.16;5038508;28;20116;-79
2022/09/16 11:21:59;;;;;;;6.38;1.30;;;17.70;95.60;;;-147.18;100.00;67318.16;5038163;28;20120;-79
2022/09/16 11:25:54;;;;;;;9.25;1.63;;;17.80;94.10;;;-147.18;100.00;67318.16;5030380;28;20045;-79
2022/09/16 11:30:11;;;;;;;4.78;1.38;;;17.80;94.30;;;-147.18;100.00;67318.16;5039692;28;20041;-79
2022/09/16 11:34:19;;;;;;;6.90;1.27;;;17.80;93.10;;;-147.18;100.00;67318.16;5003110;28;20053;-79
2022/09/16 11:37:58;;;;;;;5.45;1.15;;;17.70;89.20;;;-147.18;100.00;67318.16;5033528;28;20037;-79
2022/09/16 11:41:34;;;;;;;10.07;1.63;;;17.60;89.50;;;-147.18;100.00;67318.16;5032233;28;20064;-79
2022/09/16 11:45:35;;;;;;;6.72;1.77;;;17.60;92.20;;;-147.18;100.00;67318.16;5034699;28;20045;-79
2022/09/16 11:49:27;;;;;;;6.10;1.20;;;17.60;93.00;;;-147.18;100.00;67318.16;5037759;28;20056;-79
2022/09/16 11:53:20;;;;;;;7.80;1.27;;;17.50;95.50;;;-147.18;100.00;67318.16;5040186;28;20116;-79
2022/09/16 11:56:52;;;;;;;3.60;0.98;;;17.50;97.10;;;-147.18;100.00;67318.16;5028159;28;20099;-79
2022/09/16 12:00:23;;;;;;;6.68;1.10;;;17.50;97.80;;;-147.18;100.00;67318.16;5035358;28;20064;-78
2022/09/16 12:03:58;;;;;;;4.68;1.08;;;17.60;97.40;;;-147.18;100.00;67318.16;5033650;28;20037;-78
2022/09/16 12:07:31;;;;;;;3.95;0.90;;;17.60;97.20;;;-147.18;100.00;67318.16;5036626;28;20490;-79
2022/09/16 12:11:05;;;;;;;2.53;0.77;;;17.60;98.90;;;-147.18;100.00;67318.16;5038828;28;20061;-78
2022/09/16 12:14:38;;;;;;;2.33;0.63;;;17.70;98.10;;;-147.18;100.00;67318.16;5032744;28;20486;-79
2022/09/16 12:18:09;;;;;;;5.25;1.10;;;17.80;98.00;;;-147.18;100.00;67318.16;5040437;28;20040;-78
2022/09/16 12:21:43;;;;;;;3.58;0.82;;;17.70;96.10;;;-147.18;100.00;67318.16;5041915;28;20055;-78
2022/09/16 12:25:15;;;;;;;4.63;1.05;;;17.70;95.30;;;-147.18;100.00;67318.16;5038716;28;20049;-78
2022/09/16 12:28:48;;;;;;;2.97;0.70;;;17.70;96.60;;;-147.18;100.00;67318.16;5040581;28;20037;-79
2022/09/16 12:32:22;;;;;;;4.68;0.95;;;17.70;96.10;;;-147.18;100.00;67318.16;5035124;28;20059;-79
2022/09/16 12:35:56;;;;;;;3.47;0.80;;;17.70;96.40;;;-147.18;100.00;67318.16;5040424;28;20041;-78
2022/09/16 12:39:22;;;;;;;3.45;0.90;;;17.70;97.40;;;-147.18;100.00;67318.16;5033906;28;20037;-80
2022/09/16 12:43:25;;;;;;;4.35;0.77;;;17.70;98.10;;;-147.18;100.00;67318.16;5016057;28;20444;-88
2022/09/16 12:47:18;;;;;;;6.82;1.10;;;17.70;97.70;;;-147.18;100.00;67318.16;5018650;28;20073;-89
2022/09/16 12:51:09;;;;;;;3.38;0.90;;;17.80;98.00;;;-147.18;100.00;67318.16;5015273;28;20056;-89
2022/09/16 12:55:27;;;;;;;4.72;1.00;;;17.80;98.70;;;-147.18;100.00;67318.16;5014394;28;20034;-88
2022/09/16 12:59:37;;;;;;;3.15;0.88;;;17.80;99.30;;;-147.18;100.00;67318.16;5021438;28;20069;-89
2022/09/16 13:03:15;;;;;;;3.90;0.80;;;17.80;96.90;;;-147.18;100.00;67318.16;5001471;28;20106;-90
2022/09/16 13:06:47;;;;;;;4.68;0.90;;;17.80;97.70;;;-147.18;100.00;67318.16;5014990;28;20041;-91
2022/09/16 13:10:21;;;;;;;3.75;1.00;;;17.90;99.00;;;-147.18;100.00;67318.16;5017803;28;20075;-90
2022/09/16 13:13:53;;;;;;;3.85;1.10;;;17.90;96.80;;;-147.18;100.00;67318.16;5009390;28;20040;-89
2022/09/16 13:17:28;;;;;;;4.75;1.10;;;18.00;96.80;;;-147.18;100.00;67318.16;5001449;28;20105;-82
2022/09/16 13:21:06;;;;;;;4.53;1.02;;;18.00;96.10;;;-147.18;100.00;67318.16;5013220;28;20504;-90
2022/09/16 13:24:36;;;;;;;3.60;1.10;;;18.00;94.30;;;-147.18;100.00;67318.16;4997251;28;20123;-91
2022/09/16 13:28:35;;;;;;;5.20;1.15;;;18.10;95.70;;;-147.18;100.00;67318.16;5017853;28;20046;-90
2022/09/16 13:32:26;;;;;;;5.22;1.02;;;17.90;96.70;;;-147.18;100.00;67318.16;5015596;28;20045;-88
2022/09/16 13:36:13;;;;;;;3.38;0.90;;;17.70;94.70;;;-147.18;100.00;67318.16;4997528;28;20111;-86
2022/09/16 13:39:40;;;;;;;4.43;0.80;;;17.80;91.30;;;-147.18;100.00;67318.16;5015918;28;20115;-87
2022/09/16 13:43:13;;;;;;;4.97;1.42;;;17.60;91.90;;;-147.18;100.00;67318.16;5014113;28;20121;-88
2022/09/16 13:46:40;;;;;;;7.68;1.30;;;17.60;96.50;;;-147.18;100.00;67318.16;5014752;28;20498;-88
2022/09/16 13:50:22;;;;;;;4.82;1.30;;;17.60;98.90;;;-147.18;100.00;67318.16;5001156;28;20041;-87
2022/09/16 13:53:50;;;;;;;5.85;1.65;;;17.30;99.90;;;-147.18;100.00;67318.16;5015577;28;20038;-88
2022/09/16 13:57:48;;;;;;;8.43;1.40;;;17.20;99.90;;;-147.18;100.00;67318.16;5012571;28;20060;-84
2022/09/16 14:01:21;;;;;;;8.98;1.30;;;17.10;99.90;;;-147.18;100.00;67318.16;5014760;28;20050;-85
2022/09/16 14:05:03;;;;;;;4.57;1.20;;;17.00;99.90;;;-147.18;100.00;67318.16;5017036;28;20049;-86
2022/09/16 14:08:43;;;;;;;3.92;1.30;;;17.00;99.90;;;-147.18;100.00;67318.16;5006952;28;20050;-89
2022/09/16 14:12:19;;;;;;;5.80;1.45;;;17.00;99.90;;;-147.18;100.00;67318.16;5015947;28;20042;-86
2022/09/16 14:15:48;;;;;;;5.22;1.83;;;17.10;99.90;;;-147.18;100.00;67318.16;5016286;28;20051;-86
2022/09/16 14:19:21;;;;;;;11.63;2.00;;;17.10;99.90;;;-147.18;100.00;67318.16;5017749;28;20049;-87
2022/09/16 14:23:02;;;;;;;14.73;1.65;;;17.10;99.90;;;-147.18;100.00;67318.16;5018655;28;20421;-86
2022/09/16 14:26:29;;;;;;;7.25;1.48;;;17.10;99.90;;;-147.18;100.00;67318.16;5013372;28;20048;-87
2022/09/16 14:30:02;;;;;;;6.43;1.50;;;17.10;99.90;;;-147.18;100.00;67318.16;5013248;28;20044;-87